Time;durP1;ratioP1;P1;durP2;ratioP2;P2;SDS_P1;SDS_P2;PMS_P1;PMS_P2;Temp;Humidity;BMP_temperature;BMP_pressure;BME280_temperature;BME280_humidity;BME280_pressure;Samples;Min_cycle;Max_cycle;Signal;HPM_P1;HPM_P2
2021/04/09 00:00:51;;;;;;;20.10;12.60;;;;;;;6.87;59.77;100951.88;4981546;28;20038;-82
2021/04/09 00:03:17;;;;;;;20.30;11.57;;;;;;;6.59;60.96;100948.81;4995687;28;20034;-81
2021/04/09 00:05:43;;;;;;;22.85;12.85;;;;;;;6.79;60.83;100952.69;5011807;22;20514;-72
2021/04/09 00:08:09;;;;;;;21.75;12.70;;;;;;;6.76;61.25;100939.94;4991771;28;20034;-72
2021/04/09 00:10:34;;;;;;;28.20;12.60;;;;;;;6.65;61.35;100930.69;4992883;28;20034;-72
2021/04/09 00:13:00;;;;;;;19.20;11.68;;;;;;;6.80;60.49;100944.34;4987925;28;20038;-71
2021/04/09 00:15:26;;;;;;;22.75;11.80;;;;;;;6.83;60.00;100934.88;4993098;28;20030;-71
2021/04/09 00:17:52;;;;;;;21.42;12.32;;;;;;;6.86;60.40;100932.34;4985228;28;20034;-72
2021/04/09 00:20:24;;;;;;;19.48;11.98;;;;;;;6.66;60.32;100930.38;4993280;28;20030;-71
2021/04/09 00:22:49;;;;;;;19.65;12.13;;;;;;;6.69;60.74;100919.03;4992912;28;20077;-72
2021/04/09 00:25:16;;;;;;;18.58;12.13;;;;;;;6.58;61.40;100920.50;4992876;28;20630;-72
2021/04/09 00:27:42;;;;;;;22.02;12.38;;;;;;;6.79;60.67;100923.25;4992145;28;20026;-72
2021/04/09 00:30:11;;;;;;;23.42;12.18;;;;;;;6.91;59.94;100928.69;4988878;28;20491;-72
2021/04/09 00:32:36;;;;;;;23.58;13.52;;;;;;;6.84;60.20;100921.16;4993167;28;20112;-72
2021/04/09 00:35:03;;;;;;;21.10;13.07;;;;;;;6.88;60.12;100914.06;4992391;28;20121;-72
2021/04/09 00:37:28;;;;;;;21.20;12.80;;;;;;;6.91;59.96;100910.72;4990812;28;20454;-72
2021/04/09 00:39:54;;;;;;;22.40;12.75;;;;;;;7.04;59.83;100911.63;4979307;28;20038;-71
2021/04/09 00:42:21;;;;;;;19.08;12.25;;;;;;;7.02;59.12;100914.63;4978325;28;20079;-73
2021/04/09 00:44:47;;;;;;;20.05;12.88;;;;;;;6.88;60.16;100911.38;4970389;28;20034;-73
2021/04/09 00:47:13;;;;;;;21.40;12.73;;;;;;;6.90;59.86;100905.72;4975936;28;20042;-71
2021/04/09 00:49:39;;;;;;;21.75;12.23;;;;;;;6.91;60.20;100908.06;4974675;28;20109;-69
2021/04/09 00:52:06;;;;;;;21.67;12.93;;;;;;;6.87;60.50;100901.78;4977716;28;20489;-69
2021/04/09 00:54:32;;;;;;;20.15;12.38;;;;;;;6.89;59.68;100899.56;4977410;28;20069;-72
2021/04/09 00:57:01;;;;;;;18.58;12.13;;;;;;;6.76;60.73;100903.25;4970165;28;20506;-71
2021/04/09 00:59:28;;;;;;;21.05;12.50;;;;;;;6.87;60.88;100907.13;4974232;28;20084;-72
2021/04/09 01:01:54;;;;;;;22.15;12.35;;;;;;;6.83;59.55;100895.50;4983612;28;20038;-72
2021/04/09 01:04:19;;;;;;;21.25;12.65;;;;;;;6.90;59.80;100890.44;4991452;28;20027;-71
2021/04/09 01:06:45;;;;;;;20.92;12.45;;;;;;;6.82;60.33;100882.44;4991245;28;20042;-72
2021/04/09 01:09:11;;;;;;;21.88;12.55;;;;;;;6.90;61.01;100884.28;5005963;28;20034;-71
2021/04/09 01:11:36;;;;;;;21.10;12.48;;;;;;;6.54;62.45;100860.75;4996675;28;20035;-71
2021/04/09 01:14:02;;;;;;;20.05;12.80;;;;;;;6.32;64.41;100863.66;4991957;28;20101;-71
2021/04/09 01:16:43;;;;;;;23.98;12.15;;;;;;;6.44;63.08;100855.75;4988825;28;20529;-72
2021/04/09 01:19:46;;;;;;;18.40;11.77;;;;;;;6.40;63.54;100860.16;4984960;28;20045;-71
2021/04/09 01:22:13;;;;;;;23.40;12.13;;;;;;;5.89;64.75;100857.66;4986516;28;20033;-71
2021/04/09 01:24:59;;;;;;;19.55;12.75;;;;;;;6.10;66.03;100850.50;4983593;28;20038;-72
2021/04/09 01:27:49;;;;;;;22.77;12.00;;;;;;;6.29;64.57;100840.25;4986314;28;20076;-72
2021/04/09 01:30:56;;;;;;;21.27;11.52;;;;;;;6.33;63.69;100833.91;4986219;28;20058;-72
2021/04/09 01:33:27;;;;;;;23.02;12.35;;;;;;;6.04;65.17;100830.44;4976434;28;20029;-71
2021/04/09 01:35:56;;;;;;;19.73;12.02;;;;;;;6.14;65.12;100832.72;4981822;28;20042;-72
2021/04/09 01:38:25;;;;;;;22.15;12.25;;;;;;;6.28;64.68;100823.41;4987228;28;20022;-72
2021/04/09 01:40:55;;;;;;;22.10;12.18;;;;;;;6.18;63.81;100821.09;4990983;28;20038;-71
2021/04/09 01:43:22;;;;;;;21.35;12.55;;;;;;;6.28;63.44;100822.63;4991830;28;20039;-71
2021/04/09 01:45:50;;;;;;;20.17;11.23;;;;;;;6.21;64.10;100812.41;4988651;28;20065;-72
2021/04/09 01:48:17;;;;;;;19.55;11.35;;;;;;;6.11;63.85;100815.47;4990661;28;20528;-72
2021/04/09 01:50:44;;;;;;;23.17;12.68;;;;;;;6.13;64.27;100807.13;4990625;28;20026;-72
2021/04/09 01:53:13;;;;;;;22.30;11.65;;;;;;;6.12;63.28;100817.00;4990602;28;20434;-73
2021/04/09 01:55:45;;;;;;;20.70;11.48;;;;;;;6.18;64.18;100810.38;4990414;28;20562;-73
2021/04/09 01:58:11;;;;;;;19.13;11.52;;;;;;;6.25;63.34;100802.66;4982603;28;20038;-72
2021/04/09 02:00:37;;;;;;;20.27;11.77;;;;;;;6.30;62.84;100799.00;4988359;28;20046;-73
2021/04/09 02:03:05;;;;;;;20.83;12.20;;;;;;;6.37;63.36;100793.94;4981766;28;20030;-73
2021/04/09 02:05:33;;;;;;;21.70;11.18;;;;;;;6.55;62.36;100786.59;4988529;28;20120;-73
2021/04/09 02:08:02;;;;;;;17.90;10.90;;;;;;;6.47;61.80;100782.06;4988549;28;20035;-73
2021/04/09 02:10:28;;;;;;;20.90;12.20;;;;;;;6.01;64.94;100770.38;5002809;28;20410;-72
2021/04/09 02:12:54;;;;;;;20.60;11.38;;;;;;;6.01;64.97;100769.59;4981449;28;20053;-73
2021/04/09 02:15:23;;;;;;;19.70;11.45;;;;;;;6.30;63.75;100761.56;4984950;28;20372;-72
2021/04/09 02:17:49;;;;;;;18.85;10.95;;;;;;;6.14;63.71;100749.84;4987678;28;20483;-73
2021/04/09 02:20:21;;;;;;;16.67;10.57;;;;;;;6.33;63.62;100743.00;4987512;28;20038;-73
2021/04/09 02:22:48;;;;;;;20.48;11.43;;;;;;;6.20;64.42;100737.88;4985543;28;20514;-72
2021/04/09 02:25:16;;;;;;;18.92;10.98;;;;;;;6.28;63.68;100732.50;4989120;28;20036;-71
2021/04/09 02:27:44;;;;;;;20.17;10.80;;;;;;;6.21;63.73;100728.78;4990176;28;20495;-72
2021/04/09 02:30:11;;;;;;;16.75;10.63;;;;;;;6.38;63.67;100725.97;4979450;28;20041;-72
2021/04/09 02:32:36;;;;;;;20.38;11.35;;;;;;;6.29;63.25;100723.34;4989913;28;20038;-73
2021/04/09 02:35:05;;;;;;;23.25;11.77;;;;;;;6.18;63.67;100724.06;4990647;28;20033;-71
2021/04/09 02:37:31;;;;;;;20.70;11.30;;;;;;;5.93;64.54;100715.06;4982292;28;23314;-72
2021/04/09 02:39:59;;;;;;;22.20;11.15;;;;;;;5.93;65.39;100722.28;4987764;28;20058;-72
2021/04/09 02:42:24;;;;;;;22.50;11.43;;;;;;;6.26;63.81;100715.19;4987012;28;20034;-72
2021/04/09 02:44:52;;;;;;;21.25;11.57;;;;;;;6.30;63.60;100718.78;4985793;28;20406;-72
2021/04/09 02:47:27;;;;;;;20.10;11.02;;;;;;;6.41;63.13;100711.94;4986075;28;20036;-73
2021/04/09 02:50:21;;;;;;;18.38;11.13;;;;;;;6.18;63.97;100708.00;4982067;28;20034;-71
2021/04/09 02:52:52;;;;;;;21.02;11.18;;;;;;;6.32;63.29;100701.34;4974067;28;20655;-73
2021/04/09 02:55:22;;;;;;;18.92;10.93;;;;;;;6.24;63.42;100691.47;4987436;28;20037;-72
2021/04/09 02:57:49;;;;;;;21.15;11.20;;;;;;;6.38;63.26;100692.00;4988475;28;20049;-73
2021/04/09 03:00:16;;;;;;;18.70;11.13;;;;;;;6.27;63.02;100693.47;4987019;28;20058;-73
2021/04/09 03:02:43;;;;;;;17.00;10.55;;;;;;;6.19;64.08;100688.22;4978490;28;20466;-73
2021/04/09 03:05:10;;;;;;;21.20;11.02;;;;;;;6.24;63.31;100680.78;4986934;28;20038;-72
2021/04/09 03:07:40;;;;;;;21.92;11.23;;;;;;;6.10;63.68;100669.53;4988881;28;20042;-73
2021/04/09 03:10:13;;;;;;;16.90;10.50;;;;;;;5.90;64.64;100662.28;4987285;28;20073;-72
2021/04/09 03:12:40;;;;;;;19.13;9.95;;;;;;;6.16;63.43;100652.19;4992713;28;20372;-73
2021/04/09 03:15:08;;;;;;;19.80;10.73;;;;;;;6.08;63.81;100655.72;4993872;28;20045;-72
2021/04/09 03:17:39;;;;;;;18.85;10.55;;;;;;;6.00;63.79;100645.84;4990425;28;20035;-72
2021/04/09 03:20:06;;;;;;;20.70;10.85;;;;;;;6.06;63.48;100649.13;4985221;28;20034;-73
2021/04/09 03:22:31;;;;;;;21.15;10.50;;;;;;;6.11;64.12;100640.91;4984898;28;20026;-71
2021/04/09 03:24:57;;;;;;;21.63;10.68;;;;;;;6.13;63.61;100647.53;4985919;28;20537;-73
2021/04/09 03:27:22;;;;;;;18.73;10.65;;;;;;;6.12;64.34;100637.91;4983947;28;20027;-71
2021/04/09 03:29:48;;;;;;;21.05;10.70;;;;;;;5.94;64.37;100649.81;4993834;28;20145;-71
2021/04/09 03:32:13;;;;;;;22.30;11.30;;;;;;;6.07;64.33;100650.69;4993705;28;20549;-72
2021/04/09 03:34:42;;;;;;;18.02;10.35;;;;;;;5.89;64.89;100646.56;4987805;28;20411;-73
2021/04/09 03:37:08;;;;;;;16.17;9.93;;;;;;;5.93;64.65;100640.25;4987624;28;20066;-72
2021/04/09 03:39:34;;;;;;;17.73;10.60;;;;;;;5.99;64.60;100641.63;4985021;28;20128;-71
2021/04/09 03:42:01;;;;;;;19.38;10.52;;;;;;;5.96;65.13;100633.47;4989059;28;20037;-71
2021/04/09 03:44:27;;;;;;;20.67;10.77;;;;;;;6.00;64.67;100629.06;4991059;28;20030;-72
2021/04/09 03:46:52;;;;;;;18.77;10.63;;;;;;;5.76;64.81;100628.84;4984811;28;20030;-72
2021/04/09 03:49:18;;;;;;;20.10;10.10;;;;;;;5.65;66.01;100627.66;4987285;28;20113;-71
2021/04/09 03:51:43;;;;;;;20.10;10.23;;;;;;;5.74;65.55;100609.69;4975140;28;20030;-71
2021/04/09 03:54:09;;;;;;;20.35;10.43;;;;;;;5.83;65.42;100610.41;4995964;28;20033;-72
2021/04/09 03:56:34;;;;;;;20.75;9.48;;;;;;;5.99;64.55;100614.13;4990723;28;20042;-71
2021/04/09 03:59:00;;;;;;;19.65;10.07;;;;;;;5.92;64.54;100605.84;4988992;28;20419;-71
2021/04/09 04:01:27;;;;;;;19.23;10.52;;;;;;;5.81;65.43;100599.25;4984164;28;20073;-72
2021/04/09 04:03:52;;;;;;;17.52;10.60;;;;;;;5.88;64.75;100591.56;4988723;28;20035;-71
2021/04/09 04:06:18;;;;;;;20.23;10.00;;;;;;;5.94;65.00;100590.25;4991205;28;20054;-72
2021/04/09 04:08:44;;;;;;;18.63;10.45;;;;;;;5.93;65.05;100591.34;4986159;28;20030;-72
2021/04/09 04:11:10;;;;;;;20.90;10.60;;;;;;;5.85;65.78;100589.53;4982284;28;20038;-72
2021/04/09 04:13:35;;;;;;;20.65;9.98;;;;;;;5.89;64.60;100593.13;4995461;28;20034;-72
2021/04/09 04:16:01;;;;;;;17.88;10.35;;;;;;;5.91;65.33;100597.03;4992640;28;20594;-71
2021/04/09 04:18:26;;;;;;;21.95;10.77;;;;;;;5.95;64.98;100589.94;4991361;28;20416;-71
2021/04/09 04:20:51;;;;;;;17.70;10.35;;;;;;;5.85;65.00;100584.97;4985188;28;20045;-72
2021/04/09 04:23:17;;;;;;;20.17;10.77;;;;;;;5.94;65.77;100590.25;4989866;28;20074;-71
2021/04/09 04:25:42;;;;;;;17.77;9.95;;;;;;;5.97;65.74;100582.38;4990224;28;20030;-72
2021/04/09 04:28:08;;;;;;;20.67;10.18;;;;;;;6.09;65.28;100576.31;4979578;28;20045;-72
2021/04/09 04:30:33;;;;;;;21.73;9.98;;;;;;;6.04;64.90;100569.25;4990365;28;20029;-71
2021/04/09 04:32:59;;;;;;;17.00;10.00;;;;;;;6.13;64.71;100575.34;4991147;28;20022;-71
2021/04/09 04:35:25;;;;;;;20.55;10.05;;;;;;;5.84;65.44;100567.38;4983577;28;20070;-72
2021/04/09 04:37:50;;;;;;;19.88;9.98;;;;;;;5.95;65.37;100562.41;4991870;28;20035;-72
2021/04/09 04:40:16;;;;;;;20.17;9.70;;;;;;;6.14;65.00;100560.06;4983415;28;20042;-71
2021/04/09 04:42:41;;;;;;;17.75;9.38;;;;;;;6.14;65.06;100566.19;4992201;28;20057;-71
2021/04/09 04:45:08;;;;;;;19.02;9.80;;;;;;;5.99;65.46;100564.13;4985996;28;20034;-73
2021/04/09 04:47:33;;;;;;;19.35;9.98;;;;;;;6.06;65.36;100551.00;5004003;28;20388;-72
2021/04/09 04:49:58;;;;;;;17.60;9.57;;;;;;;5.99;65.43;100560.66;4985919;28;20041;-72
2021/04/09 04:52:24;;;;;;;19.40;9.75;;;;;;;6.24;65.35;100557.00;4989809;28;20061;-71
2021/04/09 04:54:49;;;;;;;20.10;9.80;;;;;;;6.36;64.85;100562.41;4991920;28;20038;-72
2021/04/09 04:57:15;;;;;;;23.65;10.73;;;;;;;6.37;64.95;100555.94;4989462;28;20414;-72
2021/04/09 04:59:40;;;;;;;20.35;9.63;;;;;;;6.28;64.60;100564.03;4984654;28;20117;-72
2021/04/09 05:02:06;;;;;;;17.58;9.77;;;;;;;6.39;64.37;100565.19;4988985;28;20039;-72
2021/04/09 05:04:31;;;;;;;17.92;9.63;;;;;;;6.47;64.62;100568.91;4990211;28;20510;-72
2021/04/09 05:06:57;;;;;;;19.23;10.52;;;;;;;6.39;64.70;100561.72;4986419;28;20026;-71
2021/04/09 05:09:22;;;;;;;19.02;9.70;;;;;;;6.43;64.14;100565.31;4991082;28;20030;-72
2021/04/09 05:11:47;;;;;;;21.67;10.10;;;;;;;6.23;65.87;100563.47;4992050;28;20058;-71
2021/04/09 05:14:13;;;;;;;20.17;9.60;;;;;;;6.12;66.41;100556.94;4984561;28;20042;-72
2021/04/09 05:16:38;;;;;;;19.65;10.52;;;;;;;6.38;65.12;100555.63;4977392;28;20031;-71
2021/04/09 05:19:24;;;;;;;18.58;9.88;;;;;;;6.54;64.46;100558.47;4988678;28;20558;-72
2021/04/09 05:21:50;;;;;;;19.13;10.48;;;;;;;6.50;64.87;100557.56;4922819;29;20130;-72
2021/04/09 05:24:15;;;;;;;18.58;10.07;;;;;;;6.59;65.18;100552.91;4920791;29;20138;-71
2021/04/09 05:26:41;;;;;;;20.08;10.98;;;;;;;6.62;64.09;100546.13;4921945;29;20448;-72
2021/04/09 05:29:06;;;;;;;21.98;10.48;;;;;;;6.63;64.48;100556.47;4923086;29;20143;-69
2021/04/09 05:31:35;;;;;;;19.95;10.02;;;;;;;6.64;64.59;100555.34;4930419;29;20046;-71
2021/04/09 05:34:00;;;;;;;19.08;9.77;;;;;;;6.68;64.59;100566.19;4931549;29;20051;-72
2021/04/09 05:36:26;;;;;;;20.52;9.95;;;;;;;6.81;63.95;100557.88;4930620;29;20051;-72
2021/04/09 05:38:51;;;;;;;20.50;10.43;;;;;;;6.81;64.40;100555.19;4929385;29;20052;-71
2021/04/09 05:41:17;;;;;;;27.00;10.55;;;;;;;6.85;64.57;100549.97;4928692;29;20403;-72
2021/04/09 05:43:43;;;;;;;17.00;9.07;;;;;;;6.79;64.26;100553.97;4930836;29;20626;-72
2021/04/09 05:46:08;;;;;;;19.92;9.50;;;;;;;6.93;64.09;100557.88;4911790;29;20051;-73
2021/04/09 05:48:34;;;;;;;19.70;9.65;;;;;;;6.84;64.39;100549.16;4930088;29;20036;-71
2021/04/09 05:50:59;;;;;;;19.80;9.95;;;;;;;7.01;64.27;100558.88;4928507;29;22035;-72
2021/04/09 05:53:25;;;;;;;19.17;10.07;;;;;;;6.83;64.29;100555.63;4931125;29;20134;-72
2021/04/09 05:55:50;;;;;;;23.30;9.65;;;;;;;6.89;64.63;100551.63;4914728;29;20039;-71
2021/04/09 05:58:16;;;;;;;19.73;10.70;;;;;;;6.95;64.95;100547.63;4941634;28;20050;-74
2021/04/09 06:00:42;;;;;;;17.98;9.48;;;;;;;7.04;64.60;100547.53;4977104;28;20049;-71
2021/04/09 06:03:07;;;;;;;20.88;9.85;;;;;;;7.14;63.84;100547.09;4982570;28;20065;-73
2021/04/09 06:05:33;;;;;;;20.40;9.85;;;;;;;7.12;64.63;100552.00;4989483;22;20042;-75
2021/04/09 06:07:59;;;;;;;20.95;10.65;;;;;;;7.16;64.77;100550.22;4986739;28;20491;-76
2021/04/09 06:10:24;;;;;;;18.77;9.98;;;;;;;7.13;65.00;100554.34;4994263;28;20034;-77
2021/04/09 06:12:50;;;;;;;18.25;10.07;;;;;;;7.11;63.97;100542.38;4988465;28;20030;-77
2021/04/09 06:15:15;;;;;;;18.20;9.07;;;;;;;7.11;64.38;100547.75;4987712;28;20069;-77
2021/04/09 06:17:43;;;;;;;18.58;9.75;;;;;;;7.07;65.25;100541.50;4984330;28;20585;-77
2021/04/09 06:20:08;;;;;;;20.33;9.55;;;;;;;7.15;64.52;100537.94;4990594;28;20561;-77
2021/04/09 06:22:34;;;;;;;19.88;10.35;;;;;;;7.17;64.54;100541.84;4991634;28;20126;-77
2021/04/09 06:25:01;;;;;;;17.95;8.75;;;;;;;6.79;65.82;100546.72;4987525;28;20125;-76
2021/04/09 06:27:26;;;;;;;22.67;10.23;;;;;;;6.93;66.79;100549.09;4993317;28;20457;-77
2021/04/09 06:29:52;;;;;;;19.38;10.20;;;;;;;7.03;65.53;100536.03;5000173;28;20129;-76
2021/04/09 06:32:17;;;;;;;18.15;10.43;;;;;;;7.15;65.80;100541.41;4979424;28;20043;-73
2021/04/09 06:34:43;;;;;;;19.65;9.88;;;;;;;7.10;65.34;100551.56;4996428;28;20030;-75
2021/04/09 06:37:08;;;;;;;17.65;9.95;;;;;;;7.14;65.30;100537.16;4978378;28;20394;-76
2021/04/09 06:39:34;;;;;;;18.80;9.63;;;;;;;7.19;65.58;100539.63;4992933;28;20037;-75
2021/04/09 06:42:00;;;;;;;25.23;10.75;;;;;;;7.14;66.01;100534.47;4974335;28;20495;-76
2021/04/09 06:44:27;;;;;;;18.67;9.63;;;;;;;7.02;66.02;100539.03;4996148;28;20030;-76
2021/04/09 06:46:52;;;;;;;23.48;9.60;;;;;;;7.15;66.09;100530.69;4995136;28;20054;-77
2021/04/09 06:49:18;;;;;;;18.20;9.98;;;;;;;7.23;65.65;100535.16;4992428;28;20030;-76
2021/04/09 06:51:47;;;;;;;26.35;10.02;;;;;;;7.14;67.56;100534.47;4999750;28;20034;-76
2021/04/09 06:54:16;;;;;;;23.50;9.90;;;;;;;7.26;68.63;100526.44;4988981;28;20029;-76
2021/04/09 06:56:43;;;;;;;18.63;9.88;;;;;;;7.29;68.87;100517.75;4993889;28;20022;-77
2021/04/09 06:59:15;;;;;;;21.30;10.20;;;;;;;7.13;67.95;100514.19;4992028;28;20041;-76
2021/04/09 07:01:43;;;;;;;17.02;9.93;;;;;;;7.18;69.50;100518.53;4977361;28;20034;-74
2021/04/09 07:04:09;;;;;;;17.67;10.18;;;;;;;7.15;68.72;100517.31;4993458;28;20046;-77
2021/04/09 07:06:35;;;;;;;19.95;9.90;;;;;;;7.48;68.26;100516.38;4995838;28;20436;-76
2021/04/09 07:09:00;;;;;;;19.10;9.85;;;;;;;7.59;66.75;100520.19;4998599;28;20030;-76
2021/04/09 07:11:28;;;;;;;20.67;10.90;;;;;;;7.68;66.02;100510.91;4996059;28;20061;-77
2021/04/09 07:13:55;;;;;;;19.10;9.93;;;;;;;7.85;65.40;100520.56;4993735;28;20803;-75
2021/04/09 07:16:21;;;;;;;23.20;10.52;;;;;;;7.92;65.02;100499.28;4993122;28;20151;-75
2021/04/09 07:18:52;;;;;;;17.58;10.05;;;;;;;7.91;65.80;100505.78;4991817;28;20443;-77
2021/04/09 07:21:29;;;;;;;18.75;10.38;;;;;;;8.00;64.86;100507.22;4993746;28;20038;-75
2021/04/09 07:24:12;;;;;;;20.42;10.13;;;;;;;7.94;65.72;100502.41;5003876;28;20434;-76
2021/04/09 07:26:44;;;;;;;21.27;9.25;;;;;;;7.97;65.86;100497.19;4993087;28;20737;-76
2021/04/09 07:29:32;;;;;;;19.98;10.60;;;;;;;8.28;65.70;100503.78;4986852;28;20439;-75
2021/04/09 07:32:27;;;;;;;19.45;10.52;;;;;;;8.40;64.32;100503.72;4996887;28;20044;-75
2021/04/09 07:35:11;;;;;;;22.00;10.35;;;;;;;8.46;63.85;100500.44;4982211;28;20038;-78
2021/04/09 07:37:57;;;;;;;21.08;10.27;;;;;;;8.36;64.69;100497.47;4974911;28;20772;-76
2021/04/09 07:40:31;;;;;;;18.55;10.15;;;;;;;8.46;64.61;100500.44;4998104;28;20449;-76
2021/04/09 07:42:58;;;;;;;17.10;10.38;;;;;;;8.57;64.66;100506.88;4993310;28;20053;-76
2021/04/09 07:45:25;;;;;;;20.17;9.75;;;;;;;8.57;64.63;100495.34;4983590;28;20112;-77
2021/04/09 07:48:05;;;;;;;20.20;10.15;;;;;;;8.54;65.16;100496.03;4989527;28;20084;-76
2021/04/09 07:50:49;;;;;;;23.10;9.77;;;;;;;8.52;65.45;100496.38;5001684;28;20031;-76
2021/04/09 07:53:19;;;;;;;16.80;9.85;;;;;;;8.72;64.89;100514.16;4988801;28;20026;-75
2021/04/09 07:55:46;;;;;;;18.05;10.27;;;;;;;8.78;65.46;100507.41;4993210;28;20126;-77
2021/04/09 07:58:15;;;;;;;19.23;9.90;;;;;;;9.02;64.17;100498.38;4991852;28;20018;-77
2021/04/09 08:00:42;;;;;;;21.73;9.93;;;;;;;9.12;63.81;100503.22;4990402;28;20049;-75
2021/04/09 08:03:07;;;;;;;20.25;10.93;;;;;;;9.16;64.10;100492.56;5000294;28;20054;-75
2021/04/09 08:05:33;;;;;;;19.33;9.50;;;;;;;9.16;64.37;100503.31;4991725;28;20065;-75
2021/04/09 08:07:58;;;;;;;19.65;10.25;;;;;;;9.45;64.47;100497.44;4984760;28;20568;-75
2021/04/09 08:10:32;;;;;;;20.30;10.60;;;;;;;9.53;64.11;100504.53;4984309;28;20109;-77
2021/04/09 08:12:59;;;;;;;21.83;10.52;;;;;;;9.72;63.72;100515.31;4995498;28;20034;-75
2021/04/09 08:15:30;;;;;;;16.50;10.02;;;;;;;9.80;62.65;100512.44;4992014;28;20499;-75
2021/04/09 08:17:56;;;;;;;18.13;9.73;;;;;;;9.78;62.44;100511.22;4988089;28;20030;-74
2021/04/09 08:20:22;;;;;;;24.80;10.93;;;;;;;9.78;62.21;100512.00;5005781;28;20073;-75
2021/04/09 08:22:48;;;;;;;20.98;10.90;;;;;;;9.89;62.83;100506.88;4992727;28;20049;-76
2021/04/09 08:25:15;;;;;;;17.05;9.90;;;;;;;9.69;62.55;100494.53;4992922;28;20038;-75
2021/04/09 08:27:41;;;;;;;16.67;9.98;;;;;;;9.89;63.03;100493.41;4975114;28;20038;-75
2021/04/09 08:30:07;;;;;;;18.98;10.02;;;;;;;10.15;61.40;100498.97;4996587;28;20026;-75
2021/04/09 08:32:32;;;;;;;15.05;9.18;;;;;;;10.18;61.25;100506.31;4994841;28;20030;-75
2021/04/09 08:34:59;;;;;;;15.82;9.95;;;;;;;10.49;60.83;100498.03;4971264;28;20034;-76
2021/04/09 08:37:24;;;;;;;19.95;9.38;;;;;;;10.88;58.92;100498.72;4996963;28;20088;-76
2021/04/09 08:39:51;;;;;;;15.30;9.50;;;;;;;11.05;59.31;100502.84;4992491;28;20033;-75
2021/04/09 08:42:17;;;;;;;17.00;9.75;;;;;;;11.06;57.64;100494.41;4991949;28;20034;-75
2021/04/09 08:44:44;;;;;;;19.35;10.07;;;;;;;11.08;58.09;100502.13;4960913;28;20149;-75
2021/04/09 08:47:14;;;;;;;20.20;10.00;;;;;;;11.57;57.44;100500.94;4989829;28;20042;-76
2021/04/09 08:49:40;;;;;;;17.88;10.15;;;;;;;11.91;55.82;100490.19;4986393;28;20058;-78
2021/04/09 08:52:07;;;;;;;18.00;10.13;;;;;;;12.29;56.54;100495.28;5004024;28;20502;-77
2021/04/09 08:54:33;;;;;;;23.27;10.65;;;;;;;12.40;55.73;100491.56;4975477;28;20505;-75
2021/04/09 08:57:03;;;;;;;19.88;9.68;;;;;;;12.72;54.75;100491.09;4995159;28;20132;-78
2021/04/09 08:59:47;;;;;;;17.88;9.77;;;;;;;13.23;54.19;100510.81;4987378;28;20487;-76
2021/04/09 09:02:43;;;;;;;16.23;9.20;;;;;;;12.97;53.89;100500.94;4985779;28;20513;-75
2021/04/09 09:05:09;;;;;;;14.95;9.63;;;;;;;13.01;53.36;100504.44;4924975;29;20052;-75
2021/04/09 09:07:58;;;;;;;19.30;9.75;;;;;;;13.14;53.66;100507.66;4925755;29;20055;-75
2021/04/09 09:10:29;;;;;;;17.52;9.55;;;;;;;13.15;53.56;100507.28;4927442;29;20055;-75
2021/04/09 09:13:04;;;;;;;18.33;9.88;;;;;;;12.99;53.68;100503.28;4927574;29;20027;-76
2021/04/09 09:15:41;;;;;;;14.25;9.02;;;;;;;13.01;53.85;100500.94;4926705;29;20047;-76
2021/04/09 09:18:19;;;;;;;13.35;9.35;;;;;;;12.78;54.76;100494.97;4926713;29;20051;-75
2021/04/09 09:21:10;;;;;;;16.98;9.23;;;;;;;12.99;55.08;100497.88;4926754;29;20052;-75
2021/04/09 09:23:53;;;;;;;18.23;9.57;;;;;;;13.05;53.04;100490.97;4926503;29;20898;-76
2021/04/09 09:26:41;;;;;;;19.95;9.45;;;;;;;13.01;54.84;100488.22;4929253;29;20042;-76
2021/04/09 09:29:25;;;;;;;19.95;9.15;;;;;;;13.19;54.03;100493.78;4926507;29;20055;-74
2021/04/09 09:32:02;;;;;;;16.35;9.52;;;;;;;13.43;54.00;100496.66;4919254;29;20043;-73
2021/04/09 09:34:27;;;;;;;19.33;9.30;;;;;;;13.18;54.41;100493.00;4909738;29;20070;-74
2021/04/09 09:37:07;;;;;;;16.60;8.68;;;;;;;13.00;54.72;100496.72;4923999;29;20075;-75
2021/04/09 09:39:37;;;;;;;18.30;8.48;;;;;;;13.00;55.96;100496.72;4925420;29;20041;-75
2021/04/09 09:42:06;;;;;;;15.77;8.85;;;;;;;13.31;54.69;100491.56;4952755;28;20050;-75
2021/04/09 09:44:38;;;;;;;14.43;8.95;;;;;;;13.69;54.45;100490.22;4980859;28;20044;-73
2021/04/09 09:47:04;;;;;;;18.00;9.00;;;;;;;14.03;52.81;100483.41;4988507;28;20089;-74
2021/04/09 09:49:34;;;;;;;17.60;9.00;;;;;;;14.31;52.47;100480.81;4984719;28;20429;-74
2021/04/09 09:52:00;;;;;;;16.10;8.00;;;;;;;14.19;53.26;100483.06;4974151;28;20677;-75
2021/04/09 09:54:31;;;;;;;16.92;8.85;;;;;;;14.68;52.91;100485.91;4963235;28;20039;-72
2021/04/09 09:56:58;;;;;;;14.18;8.48;;;;;;;14.82;51.87;100485.13;4976891;28;20045;-75
2021/04/09 09:59:27;;;;;;;16.40;9.60;;;;;;;14.74;50.46;100478.16;4979653;28;20025;-74
2021/04/09 10:01:58;;;;;;;15.45;8.70;;;;;;;14.53;50.51;100486.28;4968242;28;20035;-74
2021/04/09 10:04:25;;;;;;;17.17;9.43;;;;;;;14.28;51.51;100481.59;4976995;28;20050;-75
2021/04/09 10:06:52;;;;;;;23.00;9.40;;;;;;;14.47;51.78;100480.47;4973919;28;20066;-73
2021/04/09 10:09:29;;;;;;;17.15;8.90;;;;;;;14.55;50.96;100481.25;4973895;28;20498;-73
2021/04/09 10:11:56;;;;;;;14.98;8.18;;;;;;;14.61;51.36;100485.91;4977247;28;20105;-73
2021/04/09 10:14:23;;;;;;;13.13;8.38;;;;;;;14.64;51.55;100490.56;4993896;28;20034;-74
2021/04/09 10:16:48;;;;;;;13.77;7.68;;;;;;;14.66;51.26;100487.44;4982682;28;20114;-75
2021/04/09 10:19:14;;;;;;;14.57;8.07;;;;;;;14.45;51.71;100497.13;4989095;28;20598;-74
2021/04/09 10:21:41;;;;;;;14.75;7.82;;;;;;;14.87;51.61;100485.53;4971761;28;20038;-74
2021/04/09 10:24:10;;;;;;;12.20;7.35;;;;;;;15.00;50.46;100489.38;4982112;28;20018;-75
2021/04/09 10:26:37;;;;;;;14.77;7.78;;;;;;;15.12;49.72;100493.66;4991162;28;20057;-75
2021/04/09 10:29:25;;;;;;;13.23;7.75;;;;;;;14.48;51.41;100490.13;4989715;28;20650;-74
2021/04/09 10:31:51;;;;;;;13.35;7.40;;;;;;;14.73;51.71;100492.88;4971255;28;20037;-74
2021/04/09 10:34:21;;;;;;;13.27;7.25;;;;;;;14.73;50.74;100484.75;4991913;28;20018;-74
2021/04/09 10:36:47;;;;;;;13.90;7.22;;;;;;;14.55;51.28;100475.81;4990617;28;20030;-74
2021/04/09 10:39:16;;;;;;;17.45;6.97;;;;;;;14.70;51.02;100470.03;4974995;28;20717;-74
2021/04/09 10:41:52;;;;;;;17.58;7.40;;;;;;;15.17;50.38;100474.28;4986581;28;20492;-74
2021/04/09 10:44:20;;;;;;;11.43;6.43;;;;;;;15.20;50.68;100478.91;4993399;28;20039;-74
2021/04/09 10:46:50;;;;;;;9.02;6.25;;;;;;;15.38;50.18;100475.03;4991024;28;20033;-72
2021/04/09 10:49:21;;;;;;;16.42;6.53;;;;;;;15.59;50.79;100462.56;4987026;28;20034;-74
2021/04/09 10:51:50;;;;;;;9.25;6.32;;;;;;;15.84;48.75;100472.19;4972097;28;20062;-73
2021/04/09 10:54:22;;;;;;;7.80;5.30;;;;;;;16.12;47.60;100469.31;4991791;28;20036;-74
2021/04/09 10:56:51;;;;;;;9.90;6.07;;;;;;;16.06;48.56;100465.50;4991406;28;20046;-74
2021/04/09 10:59:23;;;;;;;8.43;5.72;;;;;;;16.13;47.67;100460.00;4973878;28;20125;-75
2021/04/09 11:01:49;;;;;;;10.40;5.85;;;;;;;15.99;48.26;100464.72;4991160;28;20049;-74
2021/04/09 11:04:16;;;;;;;12.82;5.93;;;;;;;16.00;47.92;100463.56;4982856;28;20038;-74
2021/04/09 11:06:49;;;;;;;9.45;5.80;;;;;;;16.17;46.51;100466.19;4996651;28;20364;-74
2021/04/09 11:09:15;;;;;;;10.07;6.10;;;;;;;15.99;47.20;100459.28;4986460;28;20038;-74
2021/04/09 11:11:41;;;;;;;10.07;5.95;;;;;;;16.13;47.41;100464.66;4993448;28;20041;-73
2021/04/09 11:14:08;;;;;;;12.30;6.63;;;;;;;16.19;47.67;100458.44;4979976;28;20026;-75
2021/04/09 11:16:52;;;;;;;15.35;6.32;;;;;;;16.09;47.55;100467.41;4974601;28;20142;-75
2021/04/09 11:19:32;;;;;;;9.85;6.38;;;;;;;15.89;47.12;100460.91;4990408;28;20082;-73
2021/04/09 11:21:59;;;;;;;12.50;7.00;;;;;;;15.67;48.20;100456.75;4989271;28;20095;-74
2021/04/09 11:24:26;;;;;;;11.50;7.07;;;;;;;15.74;48.74;100459.41;4992493;28;20031;-75
2021/04/09 11:26:53;;;;;;;13.00;7.38;;;;;;;15.50;48.78;100463.00;4974919;28;20384;-74